Fort Rucker, Alabama
Current Conditions -  °F | °C
As of 12:53 AM on Thursday 27 Nov 2014 (Local Time) from KLOR Reporting Station
Clear Clear  
Wind Chill: 45°   Ceiling: Unl
Heat Index: 47°   Visibility: 10mi
Dew Point: 39°   Wind: 5mph
Humidity: 74%   Direction: 270°W
Pressure: 30.17"   Gusts: NA
Location:  31.34°N, 85.71°W
Report Text: KLOR 270653Z AUTO 27004KT 10SM CLR 08/04 A3017 RMK AO2 SLP214 T00830039 TSNO $
Loading
Personal Weather Stations






























Interactive Weather Map New forecast layout! Learn more

10-Day Weather Forecast

Advertisements
Track Severe Weather on mobile